createdAt,value
2019-05-10T00:00:27.367Z,3.22
2019-05-10T00:03:14.966Z,3.24
2019-05-10T00:06:02.469Z,3.25
2019-05-10T00:08:46.644Z,3.16
2019-05-10T00:11:29.069Z,3.13
2019-05-10T00:14:09.220Z,3.11
2019-05-10T00:16:39.153Z,3.11
2019-05-10T00:19:09.042Z,3.11
2019-05-10T00:21:38.833Z,3.02
2019-05-10T00:24:08.665Z,2.88
2019-05-10T00:26:38.452Z,2.84
2019-05-10T00:29:08.328Z,2.81
2019-05-10T00:31:38.179Z,2.79
2019-05-10T00:34:07.961Z,2.74
2019-05-10T00:36:37.779Z,2.71
2019-05-10T00:39:07.576Z,2.76
2019-05-10T00:41:37.286Z,2.83
2019-05-10T00:44:07.052Z,2.85
2019-05-10T00:46:36.822Z,2.89
2019-05-10T00:49:06.632Z,2.90
2019-05-10T00:51:36.470Z,2.94
2019-05-10T00:54:06.326Z,2.88
2019-05-10T00:56:36.116Z,2.79
2019-05-10T00:59:05.882Z,2.71
2019-05-10T01:01:35.751Z,2.70
2019-05-10T01:04:07.844Z,2.68
2019-05-10T01:06:40.006Z,2.66
2019-05-10T01:09:11.376Z,2.75
2019-05-10T01:11:41.211Z,2.73
2019-05-10T01:14:13.170Z,2.71
2019-05-10T01:16:45.783Z,2.66
2019-05-10T01:19:18.702Z,2.65
2019-05-10T01:21:51.485Z,2.56
2019-05-10T01:24:22.871Z,2.62
2019-05-10T01:26:54.743Z,2.52
2019-05-10T01:29:27.743Z,2.53
2019-05-10T01:32:03.853Z,2.57
2019-05-10T01:34:36.903Z,2.47
2019-05-10T01:37:06.526Z,2.42
2019-05-10T01:39:41.734Z,2.30
2019-05-10T01:42:19.852Z,2.22
2019-05-10T01:44:50.174Z,2.26
2019-05-10T01:47:20.011Z,2.26
2019-05-10T01:49:55.090Z,2.32
2019-05-10T01:52:28.747Z,2.31
2019-05-10T01:55:01.586Z,2.33
2019-05-10T01:57:31.345Z,2.37
2019-05-10T02:00:01.196Z,2.34
2019-05-10T02:02:33.855Z,2.40
2019-05-10T02:05:06.850Z,2.39
2019-05-10T02:07:36.646Z,2.32
2019-05-10T02:10:12.155Z,2.24
2019-05-10T02:12:41.995Z,2.16
2019-05-10T02:15:13.419Z,2.22
2019-05-10T02:17:45.812Z,2.14
2019-05-10T02:20:23.013Z,2.06
2019-05-10T02:22:52.824Z,2.15
2019-05-10T02:25:22.654Z,2.18
2019-05-10T02:27:53.235Z,2.02
2019-05-10T02:30:25.165Z,1.91
2019-05-10T02:32:58.073Z,2.04
2019-05-10T02:35:31.019Z,2.07
2019-05-10T02:38:01.821Z,1.85
2019-05-10T02:40:31.652Z,1.93
2019-05-10T02:43:01.378Z,1.95
2019-05-10T02:45:31.764Z,1.97
2019-05-10T02:48:01.562Z,2.03
2019-05-10T02:50:31.340Z,2.02
2019-05-10T02:53:01.060Z,2.04
2019-05-10T02:55:31.768Z,1.96
2019-05-10T02:58:01.545Z,1.96
2019-05-10T03:00:33.576Z,1.89
2019-05-10T03:03:04.811Z,1.78
2019-05-10T03:05:34.568Z,1.70
2019-05-10T03:08:05.305Z,1.69
2019-05-10T03:10:35.212Z,1.75
2019-05-10T03:13:06.552Z,1.65
2019-05-10T03:15:38.635Z,1.71
2019-05-10T03:18:08.434Z,1.63
2019-05-10T03:20:38.847Z,1.60
2019-05-10T03:23:10.863Z,1.53
2019-05-10T03:25:40.903Z,1.56
2019-05-10T03:28:11.750Z,1.55
2019-05-10T03:30:41.588Z,1.50
2019-05-10T03:33:11.430Z,1.56
2019-05-10T03:35:41.163Z,1.55
2019-05-10T03:38:10.907Z,1.63
2019-05-10T03:40:43.684Z,1.66
2019-05-10T03:43:13.480Z,1.65
2019-05-10T03:45:43.284Z,1.64
2019-05-10T03:48:14.504Z,1.75
2019-05-10T03:50:48.544Z,1.72
2019-05-10T03:53:19.885Z,1.77
2019-05-10T03:55:49.645Z,1.82
2019-05-10T03:58:23.658Z,1.89
2019-05-10T04:00:53.481Z,1.77
2019-05-10T04:03:28.887Z,1.86
2019-05-10T04:05:59.270Z,2.03
2019-05-10T04:08:29.092Z,2.18
2019-05-10T04:11:01.596Z,2.25
2019-05-10T04:13:31.385Z,2.30
2019-05-10T04:16:01.193Z,2.48
2019-05-10T04:18:30.955Z,2.76
2019-05-10T04:21:00.750Z,3.16
2019-05-10T04:23:30.514Z,3.62
2019-05-10T04:26:00.322Z,3.88
2019-05-10T04:28:30.090Z,4.61
2019-05-10T04:30:59.934Z,5.14
2019-05-10T04:33:29.823Z,5.34
2019-05-10T04:35:59.660Z,5.70
2019-05-10T04:38:29.465Z,7.04
2019-05-10T04:40:59.260Z,8.16
2019-05-10T04:43:29.217Z,8.68
2019-05-10T04:45:59.003Z,9.08
2019-05-10T04:48:28.734Z,9.07
2019-05-10T04:50:58.502Z,8.44
2019-05-10T04:53:28.211Z,8.08
2019-05-10T04:55:58.996Z,7.69
2019-05-10T04:58:28.642Z,7.19
2019-05-10T05:00:58.431Z,7.07
2019-05-10T05:03:28.218Z,7.02
2019-05-10T05:05:58.114Z,7.08
2019-05-10T05:08:27.820Z,7.14
2019-05-10T05:10:57.668Z,7.36
2019-05-10T05:13:27.456Z,7.47
2019-05-10T05:15:57.189Z,7.64
2019-05-10T05:18:27.128Z,7.79
2019-05-10T05:20:56.923Z,7.73
2019-05-10T05:23:26.664Z,7.51
2019-05-10T05:25:56.485Z,7.24
2019-05-10T05:28:26.256Z,7.36
2019-05-10T05:30:55.952Z,7.37
2019-05-10T05:33:25.781Z,7.22
2019-05-10T05:35:55.566Z,7.15
2019-05-10T05:38:25.333Z,7.04
2019-05-10T05:40:55.148Z,7.04
2019-05-10T05:43:25.900Z,6.82
2019-05-10T05:45:55.682Z,6.76
2019-05-10T05:48:40.156Z,6.76
2019-05-10T05:51:00.064Z,6.90
2019-05-10T05:53:35.949Z,7.30
2019-05-10T05:56:12.684Z,7.44
2019-05-10T05:58:38.285Z,7.37
2019-05-10T06:01:09.408Z,7.09
2019-05-10T06:03:39.206Z,7.13
2019-05-10T06:06:21.769Z,7.31
2019-05-10T06:08:40.583Z,7.29
2019-05-10T06:11:10.444Z,7.36
2019-05-10T06:13:40.186Z,7.47
2019-05-10T06:16:12.857Z,7.29
2019-05-10T06:18:46.686Z,7.87
2019-05-10T06:21:17.871Z,7.98
2019-05-10T06:23:44.698Z,8.06
2019-05-10T06:26:24.041Z,8.09
2019-05-10T06:29:04.664Z,8.13
2019-05-10T06:31:17.492Z,8.23
2019-05-10T06:33:47.320Z,8.37
2019-05-10T06:36:17.121Z,8.53
2019-05-10T06:38:46.950Z,8.56
2019-05-10T06:41:19.086Z,8.73
2019-05-10T06:43:51.414Z,8.88
2019-05-10T06:46:23.613Z,8.97
2019-05-10T06:48:53.046Z,9.09
2019-05-10T06:51:22.812Z,9.31
2019-05-10T06:53:53.904Z,9.50
2019-05-10T06:56:23.922Z,9.75
2019-05-10T06:58:53.674Z,9.89
2019-05-10T07:01:23.487Z,10.42
2019-05-10T07:03:53.251Z,10.94
2019-05-10T07:06:25.306Z,11.37
2019-05-10T07:08:57.814Z,11.78
2019-05-10T07:11:28.236Z,12.32
2019-05-10T07:13:58.064Z,12.66
2019-05-10T07:16:29.529Z,13.21
2019-05-10T07:19:00.661Z,13.54
2019-05-10T07:21:30.899Z,14.07
2019-05-10T07:24:01.793Z,14.66
2019-05-10T07:26:33.041Z,15.00
2019-05-10T07:29:02.815Z,15.30
2019-05-10T07:31:32.614Z,15.43
2019-05-10T07:34:02.463Z,15.44
2019-05-10T07:36:34.658Z,15.59
2019-05-10T07:39:08.313Z,15.66
2019-05-10T07:41:38.107Z,16.02
2019-05-10T07:44:10.362Z,16.24
2019-05-10T07:46:40.252Z,16.38
2019-05-10T07:49:10.957Z,16.40
2019-05-10T07:51:40.747Z,16.56
2019-05-10T07:54:10.610Z,16.52
2019-05-10T07:56:45.865Z,16.91
2019-05-10T07:59:16.229Z,16.91
2019-05-10T08:01:43.540Z,16.78
2019-05-10T08:04:13.424Z,16.78
2019-05-10T08:06:47.657Z,16.80
2019-05-10T08:09:14.754Z,16.80
2019-05-10T08:11:44.547Z,17.06
2019-05-10T08:14:14.317Z,17.19
2019-05-10T08:16:49.775Z,17.20
2019-05-10T08:19:16.412Z,17.42
2019-05-10T08:21:48.799Z,17.65
2019-05-10T08:24:17.773Z,17.77
2019-05-10T08:26:47.549Z,18.04
2019-05-10T08:29:17.331Z,17.99
2019-05-10T08:31:52.802Z,18.17
2019-05-10T08:34:19.187Z,18.31
2019-05-10T08:36:51.999Z,18.05
2019-05-10T08:39:22.375Z,18.16
2019-05-10T08:42:03.619Z,18.31
2019-05-10T08:44:24.055Z,18.44
2019-05-10T08:46:53.982Z,18.48
2019-05-10T08:49:31.403Z,17.92
2019-05-10T08:51:55.290Z,17.91
2019-05-10T08:54:26.448Z,18.07
2019-05-10T08:57:01.234Z,17.85
2019-05-10T08:59:30.796Z,18.00
2019-05-10T09:02:01.963Z,18.15
2019-05-10T09:04:41.737Z,18.38
2019-05-10T09:07:02.939Z,18.55
2019-05-10T09:09:35.829Z,18.67
2019-05-10T09:12:09.263Z,18.67
2019-05-10T09:14:42.601Z,18.78
2019-05-10T09:17:14.803Z,18.86
2019-05-10T09:19:44.321Z,18.87
2019-05-10T09:22:15.428Z,18.80
2019-05-10T09:24:48.432Z,18.84
2019-05-10T09:27:18.993Z,18.76
2019-05-10T09:29:48.801Z,18.74
2019-05-10T09:32:23.385Z,18.79
2019-05-10T09:34:54.088Z,18.81
2019-05-10T09:37:22.864Z,18.68
2019-05-10T09:40:04.255Z,18.66
2019-05-10T09:42:26.519Z,18.24
2019-05-10T09:44:55.776Z,17.99
2019-05-10T09:47:25.540Z,18.11
2019-05-10T09:49:58.828Z,18.27
2019-05-10T09:52:26.886Z,18.42
2019-05-10T09:54:57.108Z,18.21
2019-05-10T09:57:27.878Z,18.27
2019-05-10T09:59:57.884Z,18.37
2019-05-10T10:02:33.651Z,18.50
2019-05-10T10:04:59.279Z,18.62
2019-05-10T10:07:33.301Z,18.44
2019-05-10T10:10:00.610Z,18.54
2019-05-10T10:12:30.451Z,18.73
2019-05-10T10:15:00.272Z,18.83
2019-05-10T10:17:30.799Z,18.86
2019-05-10T10:20:00.751Z,18.88
2019-05-10T10:22:30.563Z,18.87
2019-05-10T10:25:00.746Z,18.91
2019-05-10T10:27:34.646Z,18.87
2019-05-10T10:30:06.586Z,18.81
2019-05-10T10:32:34.943Z,18.95
2019-05-10T10:35:07.953Z,19.13
2019-05-10T10:37:38.017Z,19.10
2019-05-10T10:40:09.104Z,19.09
2019-05-10T10:42:39.035Z,18.77
2019-05-10T10:45:10.092Z,18.42
2019-05-10T10:47:39.883Z,18.21
2019-05-10T10:50:13.448Z,18.34
2019-05-10T10:52:41.766Z,18.52
2019-05-10T10:55:13.477Z,18.78
2019-05-10T10:57:44.689Z,18.66
2019-05-10T11:00:20.279Z,18.92
2019-05-10T11:02:46.770Z,18.85
2019-05-10T11:05:17.677Z,18.65
2019-05-10T11:07:47.987Z,18.19
2019-05-10T11:10:22.274Z,17.88
2019-05-10T11:12:56.241Z,16.78
2019-05-10T11:15:28.254Z,16.28
2019-05-10T11:17:55.734Z,15.84
2019-05-10T11:20:25.563Z,15.27
2019-05-10T11:22:55.452Z,15.08
2019-05-10T11:25:25.247Z,14.98
2019-05-10T11:27:58.547Z,14.63
2019-05-10T11:30:26.613Z,13.93
2019-05-10T11:32:56.420Z,13.36
2019-05-10T11:35:31.233Z,12.80
2019-05-10T11:37:57.966Z,12.39
2019-05-10T11:40:32.140Z,12.31
2019-05-10T11:43:01.327Z,12.40
2019-05-10T11:45:34.328Z,12.43
2019-05-10T11:48:02.450Z,12.52
2019-05-10T11:50:35.311Z,12.59
2019-05-10T11:53:06.900Z,12.66
2019-05-10T11:55:39.578Z,12.64
2019-05-10T11:58:08.761Z,12.63
2019-05-10T12:00:38.416Z,12.78
2019-05-10T12:03:14.776Z,12.92
2019-05-10T12:05:42.311Z,13.04
2019-05-10T12:08:13.008Z,13.19
2019-05-10T12:10:52.810Z,13.24
2019-05-10T12:13:19.452Z,13.34
2019-05-10T12:15:45.711Z,13.51
2019-05-10T12:18:15.498Z,13.62
2019-05-10T12:20:55.911Z,13.76
2019-05-10T12:23:23.135Z,14.02
2019-05-10T12:26:16.067Z,14.18
2019-05-10T12:28:24.485Z,14.40
2019-05-10T12:30:51.348Z,14.63
2019-05-10T12:33:25.120Z,14.65
2019-05-10T12:35:52.590Z,14.77
2019-05-10T12:38:23.754Z,14.77
2019-05-10T12:40:53.930Z,14.67
2019-05-10T12:43:23.743Z,14.56
2019-05-10T12:45:53.546Z,14.51
2019-05-10T12:48:23.693Z,14.52
2019-05-10T12:50:57.955Z,14.44
2019-05-10T12:53:25.094Z,14.47
2019-05-10T12:55:54.853Z,14.34
2019-05-10T12:58:24.658Z,14.23
2019-05-10T13:00:54.833Z,14.16
2019-05-10T13:03:30.785Z,13.98
2019-05-10T13:05:56.321Z,13.79
2019-05-10T13:08:26.213Z,13.71
2019-05-10T13:10:55.961Z,13.69
2019-05-10T13:13:29.852Z,13.59
2019-05-10T13:15:57.308Z,13.51
2019-05-10T13:18:48.101Z,13.31
2019-05-10T13:20:58.570Z,13.07
2019-05-10T13:23:28.363Z,13.20
2019-05-10T13:25:58.189Z,12.92
2019-05-10T13:28:28.018Z,12.96
2019-05-10T13:30:59.900Z,12.90
2019-05-10T13:33:34.751Z,13.03
2019-05-10T13:36:00.823Z,12.88
2019-05-10T13:38:30.643Z,12.97
2019-05-10T13:41:00.430Z,13.22
2019-05-10T13:43:30.208Z,13.52
2019-05-10T13:46:00.043Z,13.62
2019-05-10T13:48:29.811Z,13.87
2019-05-10T13:50:59.605Z,14.05
2019-05-10T13:53:29.526Z,14.29
2019-05-10T13:55:59.285Z,14.28
2019-05-10T13:58:29.073Z,14.32
2019-05-10T14:00:58.921Z,14.26
2019-05-10T14:03:42.967Z,13.88
2019-05-10T14:06:00.217Z,13.88
2019-05-10T14:08:30.064Z,13.68
2019-05-10T14:11:01.868Z,13.49
2019-05-10T14:13:35.845Z,13.42
2019-05-10T14:16:05.065Z,13.42
2019-05-10T14:18:34.845Z,13.60
2019-05-10T14:21:04.597Z,13.60
2019-05-10T14:23:35.570Z,13.59
2019-05-10T14:26:09.149Z,13.63
2019-05-10T14:28:37.387Z,13.65
2019-05-10T14:31:07.469Z,13.66
2019-05-10T14:33:38.129Z,13.74
2019-05-10T14:36:07.901Z,13.68
2019-05-10T14:38:37.667Z,13.63
2019-05-10T14:41:10.693Z,13.46
2019-05-10T14:43:38.928Z,13.54
2019-05-10T14:46:13.801Z,13.52
2019-05-10T14:48:40.363Z,13.70
2019-05-10T14:51:11.738Z,13.89
2019-05-10T14:53:41.705Z,14.18
2019-05-10T14:56:13.979Z,14.35
2019-05-10T14:58:42.981Z,14.48
2019-05-10T15:01:12.802Z,14.55
2019-05-10T15:03:45.707Z,14.55
2019-05-10T15:06:14.106Z,14.64
2019-05-10T15:08:43.990Z,14.74
2019-05-10T15:11:13.735Z,14.82
2019-05-10T15:13:43.536Z,14.83
2019-05-10T15:16:26.075Z,15.03
2019-05-10T15:18:44.966Z,14.97
2019-05-10T15:21:14.741Z,14.94
2019-05-10T15:23:44.593Z,14.81
2019-05-10T15:26:14.373Z,14.71
2019-05-10T15:28:44.171Z,14.65
2019-05-10T15:31:14.042Z,14.64
2019-05-10T15:33:43.874Z,14.70
2019-05-10T15:36:13.696Z,14.64
2019-05-10T15:38:49.714Z,14.59
2019-05-10T15:41:16.879Z,14.53
2019-05-10T15:43:48.934Z,14.43
2019-05-10T15:46:23.076Z,14.28
2019-05-10T15:48:50.762Z,14.17
2019-05-10T15:51:34.896Z,14.05
2019-05-10T15:53:52.200Z,13.87
2019-05-10T15:56:22.076Z,13.71
2019-05-10T15:58:51.925Z,13.58
2019-05-10T16:01:27.038Z,13.45
2019-05-10T16:03:53.281Z,13.30
2019-05-10T16:06:24.174Z,13.14
2019-05-10T16:08:54.055Z,13.06
2019-05-10T16:11:23.859Z,12.85
2019-05-10T16:13:54.724Z,12.76
2019-05-10T16:16:30.342Z,12.64
2019-05-10T16:18:56.727Z,12.43
2019-05-10T16:21:26.510Z,12.34
2019-05-10T16:23:56.326Z,12.32
2019-05-10T16:26:26.067Z,12.32
2019-05-10T16:29:02.008Z,12.16
2019-05-10T16:31:27.388Z,12.16
2019-05-10T16:33:57.190Z,12.04
2019-05-10T16:36:28.337Z,11.93
2019-05-10T16:39:01.433Z,11.89
2019-05-10T16:41:32.707Z,11.79
2019-05-10T16:44:02.489Z,11.75
2019-05-10T16:46:32.327Z,11.71
2019-05-10T16:49:02.190Z,11.69
2019-05-10T16:51:31.997Z,11.73
2019-05-10T16:54:01.847Z,11.75
2019-05-10T16:56:31.668Z,11.59
2019-05-10T16:59:01.748Z,11.49
2019-05-10T17:01:33.626Z,11.55
2019-05-10T17:04:03.088Z,11.59
2019-05-10T17:06:35.376Z,11.59
2019-05-10T17:09:09.446Z,11.65
2019-05-10T17:11:41.484Z,11.68
2019-05-10T17:14:12.697Z,11.63
2019-05-10T17:16:41.526Z,11.52
2019-05-10T17:19:12.229Z,11.46
2019-05-10T17:21:42.069Z,11.37
2019-05-10T17:24:18.526Z,11.27
2019-05-10T17:26:50.432Z,11.15
2019-05-10T17:29:20.288Z,11.05
2019-05-10T17:31:50.106Z,11.06
2019-05-10T17:34:27.753Z,11.23
2019-05-10T17:36:57.642Z,11.11
2019-05-10T17:39:26.023Z,10.91
2019-05-10T17:42:03.156Z,10.75
2019-05-10T17:44:29.968Z,10.63
2019-05-10T17:46:59.833Z,10.54
2019-05-10T17:49:29.734Z,10.46
2019-05-10T17:51:59.947Z,10.37
2019-05-10T17:54:33.763Z,10.25
2019-05-10T17:57:02.811Z,10.18
2019-05-10T17:59:34.964Z,10.12
2019-05-10T18:02:04.937Z,10.06
2019-05-10T18:04:34.806Z,9.96
2019-05-10T18:07:05.686Z,9.84
2019-05-10T18:09:35.538Z,9.78
2019-05-10T18:12:05.771Z,9.77
2019-05-10T18:14:35.967Z,9.72
2019-05-10T18:17:07.271Z,9.67
2019-05-10T18:19:37.373Z,9.52
2019-05-10T18:22:08.269Z,9.50
2019-05-10T18:24:42.172Z,9.48
2019-05-10T18:27:12.905Z,9.39
2019-05-10T18:29:42.655Z,8.82
2019-05-10T18:32:13.552Z,9.18
2019-05-10T18:34:48.289Z,9.00
2019-05-10T18:37:21.744Z,8.98
2019-05-10T18:39:52.988Z,8.97
2019-05-10T18:42:25.290Z,8.98
2019-05-10T18:44:54.499Z,8.93
2019-05-10T18:47:24.752Z,8.78
2019-05-10T18:49:54.778Z,8.68
2019-05-10T18:52:24.686Z,8.64
2019-05-10T18:54:55.624Z,8.66
2019-05-10T18:57:25.955Z,9.09
2019-05-10T18:59:56.945Z,9.30
2019-05-10T19:02:31.141Z,9.25
2019-05-10T19:05:01.271Z,9.32
2019-05-10T19:07:31.188Z,9.36
2019-05-10T19:10:01.030Z,9.49
2019-05-10T19:12:40.623Z,9.35
2019-05-10T19:15:15.945Z,9.00
2019-05-10T19:17:48.462Z,8.74
2019-05-10T19:20:19.594Z,8.61
2019-05-10T19:22:50.431Z,8.57
2019-05-10T19:25:22.848Z,8.51
2019-05-10T19:27:52.731Z,8.47
2019-05-10T19:30:22.797Z,8.30
2019-05-10T19:32:56.342Z,8.19
2019-05-10T19:35:24.115Z,8.06
2019-05-10T19:37:54.278Z,7.92
2019-05-10T19:40:24.145Z,7.86
2019-05-10T19:42:55.723Z,7.84
2019-05-10T19:45:26.740Z,7.85
2019-05-10T19:47:57.279Z,7.84
2019-05-10T19:50:30.782Z,7.82
2019-05-10T19:53:03.762Z,8.06
2019-05-10T19:55:34.747Z,7.97
2019-05-10T19:58:08.541Z,7.79
2019-05-10T20:00:41.583Z,7.77
2019-05-10T20:03:12.494Z,7.70
2019-05-10T20:05:42.740Z,7.75
2019-05-10T20:08:12.465Z,7.74
2019-05-10T20:10:43.279Z,7.51
2019-05-10T20:16:04.948Z,7.33
2019-05-10T20:18:36.205Z,7.18
2019-05-10T20:21:13.406Z,7.14
2019-05-10T20:23:43.506Z,7.19
2019-05-10T20:26:13.525Z,7.22
2019-05-10T20:28:55.045Z,7.24
2019-05-10T20:31:24.947Z,7.29
2019-05-10T20:33:55.624Z,7.32
2019-05-10T20:36:26.156Z,7.42
2019-05-10T20:38:56.043Z,7.48
2019-05-10T20:41:26.325Z,7.57
2019-05-10T20:43:58.813Z,7.62
2019-05-10T20:46:29.736Z,7.90
2019-05-10T20:48:59.531Z,7.90
2019-05-10T20:51:29.306Z,7.74
2019-05-10T20:54:00.591Z,7.60
2019-05-10T20:56:30.405Z,7.54
2019-05-10T20:59:00.209Z,7.40
2019-05-10T21:01:31.123Z,7.34
2019-05-10T21:04:00.962Z,7.32
2019-05-10T21:06:32.155Z,7.17
2019-05-10T21:09:01.877Z,7.09
2019-05-10T21:11:31.640Z,7.09
2019-05-10T21:14:01.642Z,6.96
2019-05-10T21:16:32.581Z,6.98
2019-05-10T21:19:02.280Z,7.05
2019-05-10T21:21:33.815Z,7.11
2019-05-10T21:24:03.652Z,7.01
2019-05-10T21:26:36.948Z,6.99
2019-05-10T21:29:07.488Z,6.96
2019-05-10T21:31:37.366Z,6.83
2019-05-10T21:34:10.131Z,6.85
2019-05-10T21:36:39.882Z,6.88
2019-05-10T21:39:09.689Z,6.89
2019-05-10T21:41:39.586Z,6.88
2019-05-10T21:44:11.827Z,6.78
2019-05-10T21:46:41.632Z,6.78
2019-05-10T21:49:11.405Z,6.92
2019-05-10T21:51:41.085Z,6.98
2019-05-10T21:54:11.684Z,6.89
2019-05-10T21:56:41.407Z,6.81
2019-05-10T21:59:11.165Z,6.80
2019-05-10T22:01:40.967Z,6.85
2019-05-10T22:04:10.715Z,6.97
2019-05-10T22:06:40.487Z,7.05
2019-05-10T22:09:10.737Z,7.02
2019-05-10T22:11:40.505Z,6.89
2019-05-10T22:14:10.431Z,6.76
2019-05-10T22:16:41.889Z,6.52
2019-05-10T22:19:11.694Z,6.50
2019-05-10T22:21:41.545Z,6.65
2019-05-10T22:24:11.325Z,6.74
2019-05-10T22:26:41.647Z,6.44
2019-05-10T22:29:11.252Z,6.32
2019-05-10T22:31:41.105Z,6.20
2019-05-10T22:34:11.685Z,6.12
2019-05-10T22:36:41.499Z,6.16
2019-05-10T22:39:11.336Z,6.23
2019-05-10T22:41:41.112Z,6.24
2019-05-10T22:44:11.001Z,6.11
2019-05-10T22:46:43.653Z,6.14
2019-05-10T22:49:13.674Z,6.07
2019-05-10T22:51:43.466Z,6.16
2019-05-10T22:54:15.567Z,6.17
2019-05-10T22:56:46.847Z,6.21
2019-05-10T22:59:17.069Z,6.16
2019-05-10T23:01:49.168Z,6.14
2019-05-10T23:04:20.561Z,6.14
2019-05-10T23:06:51.339Z,6.00
2019-05-10T23:09:24.820Z,5.78
2019-05-10T23:11:52.717Z,5.70
2019-05-10T23:14:22.590Z,5.71
2019-05-10T23:16:53.087Z,5.78
2019-05-10T23:19:22.904Z,5.82
2019-05-10T23:21:52.655Z,5.95
2019-05-10T23:24:23.943Z,6.03
2019-05-10T23:26:54.564Z,6.00
2019-05-10T23:29:25.045Z,6.08
2019-05-10T23:31:56.901Z,6.11
2019-05-10T23:34:26.933Z,6.19
2019-05-10T23:36:56.767Z,6.27
2019-05-10T23:39:39.581Z,6.31
2019-05-10T23:41:57.923Z,6.31
2019-05-10T23:44:27.646Z,6.27
2019-05-10T23:46:57.634Z,6.23
2019-05-10T23:49:27.371Z,6.22
2019-05-10T23:51:57.013Z,6.18
2019-05-10T23:54:29.027Z,6.00
2019-05-10T23:57:05.533Z,6.00
2019-05-10T23:59:35.985Z,5.86
